Terminal Aerodrome Forecast
Issued by NWS Jackson, MS

Home | Current Version | Previous Version | Text Only | Print | Product List | Glossary On
Versions: 1 2 3 4 5 6 7 8 9 10 11 12 13 14 15 16
000
FTUS44 KMEG 291623 AAB
TAFTUP
TAF AMD
KTUP 291623Z 2916/3012 18011G19KT P6SM OVC028
     FM292100 21011G18KT P6SM SCT030 OVC150
     FM300300 21007KT P6SM VCSH OVC040
      TEMPO 3005/3009 VRB10G25KT 2SM -TSRA BKN015 OVC025CB
     FM301000 36007KT P6SM SCT005 OVC015=

USA.gov is the U.S. government's official web portal to all federal, state and local government web resources and services.